sensor_id;sensor_type;location;lat;lon;timestamp;P1;durP1;ratioP1;P2;durP2;ratioP2
39674;SDS011;27790;50.840;4.386;2023-06-10T00:00:40;9.48;;;6.88;;
39674;SDS011;27790;50.840;4.386;2023-06-10T00:03:07;7.20;;;6.35;;
39674;SDS011;27790;50.840;4.386;2023-06-10T00:05:33;8.93;;;6.13;;
39674;SDS011;27790;50.840;4.386;2023-06-10T00:07:59;6.65;;;5.95;;
39674;SDS011;27790;50.840;4.386;2023-06-10T00:10:31;8.38;;;7.10;;
39674;SDS011;27790;50.840;4.386;2023-06-10T00:12:58;6.72;;;6.13;;
39674;SDS011;27790;50.840;4.386;2023-06-10T00:15:24;15.15;;;7.18;;
39674;SDS011;27790;50.840;4.386;2023-06-10T00:17:50;11.57;;;7.22;;
39674;SDS011;27790;50.840;4.386;2023-06-10T00:20:17;7.45;;;6.72;;
39674;SDS011;27790;50.840;4.386;2023-06-10T00:22:43;9.93;;;6.70;;
39674;SDS011;27790;50.840;4.386;2023-06-10T00:25:10;7.85;;;7.07;;
39674;SDS011;27790;50.840;4.386;2023-06-10T00:27:36;10.63;;;6.55;;
39674;SDS011;27790;50.840;4.386;2023-06-10T00:30:02;10.48;;;7.57;;
39674;SDS011;27790;50.840;4.386;2023-06-10T00:32:31;8.75;;;7.03;;
39674;SDS011;27790;50.840;4.386;2023-06-10T00:35:00;8.65;;;7.18;;
39674;SDS011;27790;50.840;4.386;2023-06-10T00:37:26;10.60;;;6.88;;
39674;SDS011;27790;50.840;4.386;2023-06-10T00:39:53;7.28;;;6.53;;
39674;SDS011;27790;50.840;4.386;2023-06-10T00:42:19;9.57;;;6.25;;
39674;SDS011;27790;50.840;4.386;2023-06-10T00:44:44;9.68;;;6.63;;
39674;SDS011;27790;50.840;4.386;2023-06-10T00:47:10;7.40;;;6.57;;
39674;SDS011;27790;50.840;4.386;2023-06-10T00:49:36;9.90;;;7.10;;
39674;SDS011;27790;50.840;4.386;2023-06-10T00:52:02;9.05;;;6.70;;
39674;SDS011;27790;50.840;4.386;2023-06-10T00:54:29;14.95;;;6.03;;
39674;SDS011;27790;50.840;4.386;2023-06-10T00:56:55;8.48;;;6.32;;
39674;SDS011;27790;50.840;4.386;2023-06-10T00:59:22;9.73;;;6.60;;
39674;SDS011;27790;50.840;4.386;2023-06-10T01:01:50;7.72;;;6.07;;
39674;SDS011;27790;50.840;4.386;2023-06-10T01:04:17;6.32;;;5.82;;
39674;SDS011;27790;50.840;4.386;2023-06-10T01:09:32;8.60;;;7.60;;
39674;SDS011;27790;50.840;4.386;2023-06-10T01:12:08;8.20;;;7.40;;
39674;SDS011;27790;50.840;4.386;2023-06-10T01:14:36;7.63;;;6.63;;
39674;SDS011;27790;50.840;4.386;2023-06-10T01:17:01;10.80;;;6.65;;
39674;SDS011;27790;50.840;4.386;2023-06-10T01:19:28;8.55;;;6.70;;
39674;SDS011;27790;50.840;4.386;2023-06-10T01:21:56;10.10;;;7.00;;
39674;SDS011;27790;50.840;4.386;2023-06-10T01:24:26;7.93;;;6.72;;
39674;SDS011;27790;50.840;4.386;2023-06-10T01:26:52;9.82;;;7.57;;
39674;SDS011;27790;50.840;4.386;2023-06-10T01:29:23;9.88;;;6.93;;
39674;SDS011;27790;50.840;4.386;2023-06-10T01:32:06;12.48;;;7.25;;
39674;SDS011;27790;50.840;4.386;2023-06-10T01:34:36;7.70;;;6.55;;
39674;SDS011;27790;50.840;4.386;2023-06-10T01:37:04;7.57;;;6.75;;
39674;SDS011;27790;50.840;4.386;2023-06-10T01:39:30;9.82;;;6.65;;
39674;SDS011;27790;50.840;4.386;2023-06-10T01:41:57;8.98;;;6.88;;
39674;SDS011;27790;50.840;4.386;2023-06-10T01:44:23;10.05;;;7.10;;
39674;SDS011;27790;50.840;4.386;2023-06-10T01:46:49;8.85;;;6.63;;
39674;SDS011;27790;50.840;4.386;2023-06-10T01:49:15;10.68;;;7.57;;
39674;SDS011;27790;50.840;4.386;2023-06-10T01:51:41;12.02;;;6.50;;
39674;SDS011;27790;50.840;4.386;2023-06-10T01:54:06;11.88;;;7.05;;
39674;SDS011;27790;50.840;4.386;2023-06-10T01:56:32;13.57;;;7.32;;
39674;SDS011;27790;50.840;4.386;2023-06-10T01:58:58;15.30;;;7.43;;
39674;SDS011;27790;50.840;4.386;2023-06-10T02:01:25;9.07;;;6.70;;
39674;SDS011;27790;50.840;4.386;2023-06-10T02:03:51;7.75;;;6.95;;
39674;SDS011;27790;50.840;4.386;2023-06-10T02:06:16;7.78;;;6.85;;
39674;SDS011;27790;50.840;4.386;2023-06-10T02:08:42;7.57;;;6.93;;
39674;SDS011;27790;50.840;4.386;2023-06-10T02:11:08;12.32;;;7.22;;
39674;SDS011;27790;50.840;4.386;2023-06-10T02:13:33;9.15;;;7.07;;
39674;SDS011;27790;50.840;4.386;2023-06-10T02:15:59;7.60;;;6.90;;
39674;SDS011;27790;50.840;4.386;2023-06-10T02:18:26;7.57;;;6.80;;
39674;SDS011;27790;50.840;4.386;2023-06-10T02:20:53;8.93;;;7.20;;
39674;SDS011;27790;50.840;4.386;2023-06-10T02:23:18;7.88;;;7.18;;
39674;SDS011;27790;50.840;4.386;2023-06-10T02:25:44;7.10;;;6.28;;
39674;SDS011;27790;50.840;4.386;2023-06-10T02:28:12;10.10;;;7.95;;
39674;SDS011;27790;50.840;4.386;2023-06-10T02:30:39;7.38;;;6.70;;
39674;SDS011;27790;50.840;4.386;2023-06-10T02:33:06;9.13;;;7.20;;
39674;SDS011;27790;50.840;4.386;2023-06-10T02:35:35;12.35;;;7.50;;
39674;SDS011;27790;50.840;4.386;2023-06-10T02:38:01;7.82;;;7.03;;
39674;SDS011;27790;50.840;4.386;2023-06-10T02:40:27;10.50;;;6.88;;
39674;SDS011;27790;50.840;4.386;2023-06-10T02:42:53;9.85;;;7.55;;
39674;SDS011;27790;50.840;4.386;2023-06-10T02:45:18;11.60;;;7.15;;
39674;SDS011;27790;50.840;4.386;2023-06-10T02:47:44;7.95;;;7.15;;
39674;SDS011;27790;50.840;4.386;2023-06-10T02:50:10;8.23;;;7.40;;
39674;SDS011;27790;50.840;4.386;2023-06-10T02:52:36;9.20;;;6.68;;
39674;SDS011;27790;50.840;4.386;2023-06-10T02:55:02;10.77;;;7.72;;
39674;SDS011;27790;50.840;4.386;2023-06-10T02:57:28;9.63;;;7.07;;
39674;SDS011;27790;50.840;4.386;2023-06-10T02:59:53;10.57;;;7.40;;
39674;SDS011;27790;50.840;4.386;2023-06-10T03:02:19;9.43;;;7.53;;
39674;SDS011;27790;50.840;4.386;2023-06-10T03:04:45;9.25;;;7.40;;
39674;SDS011;27790;50.840;4.386;2023-06-10T03:07:11;9.38;;;7.72;;
39674;SDS011;27790;50.840;4.386;2023-06-10T03:09:37;8.32;;;7.53;;
39674;SDS011;27790;50.840;4.386;2023-06-10T03:12:03;9.98;;;7.18;;
39674;SDS011;27790;50.840;4.386;2023-06-10T03:14:29;9.80;;;8.13;;
39674;SDS011;27790;50.840;4.386;2023-06-10T03:16:54;9.40;;;8.10;;
39674;SDS011;27790;50.840;4.386;2023-06-10T03:19:20;11.07;;;7.28;;
39674;SDS011;27790;50.840;4.386;2023-06-10T03:21:49;9.82;;;6.88;;
39674;SDS011;27790;50.840;4.386;2023-06-10T03:24:31;12.30;;;7.47;;
39674;SDS011;27790;50.840;4.386;2023-06-10T03:26:57;10.07;;;7.60;;
39674;SDS011;27790;50.840;4.386;2023-06-10T03:29:22;9.52;;;7.05;;
39674;SDS011;27790;50.840;4.386;2023-06-10T03:31:48;7.65;;;6.97;;
39674;SDS011;27790;50.840;4.386;2023-06-10T03:34:13;11.30;;;7.53;;
39674;SDS011;27790;50.840;4.386;2023-06-10T03:36:39;10.25;;;6.72;;
39674;SDS011;27790;50.840;4.386;2023-06-10T03:39:06;9.38;;;7.32;;
39674;SDS011;27790;50.840;4.386;2023-06-10T03:41:31;20.17;;;7.75;;
39674;SDS011;27790;50.840;4.386;2023-06-10T03:43:57;9.63;;;7.70;;
39674;SDS011;27790;50.840;4.386;2023-06-10T03:46:23;9.63;;;7.10;;
39674;SDS011;27790;50.840;4.386;2023-06-10T03:48:48;8.20;;;7.32;;
39674;SDS011;27790;50.840;4.386;2023-06-10T03:51:14;10.95;;;7.50;;
39674;SDS011;27790;50.840;4.386;2023-06-10T03:53:40;9.85;;;7.00;;
39674;SDS011;27790;50.840;4.386;2023-06-10T03:56:05;11.63;;;7.38;;
39674;SDS011;27790;50.840;4.386;2023-06-10T03:58:31;13.70;;;8.68;;
39674;SDS011;27790;50.840;4.386;2023-06-10T04:00:56;8.85;;;7.40;;
39674;SDS011;27790;50.840;4.386;2023-06-10T04:03:22;12.13;;;7.88;;
39674;SDS011;27790;50.840;4.386;2023-06-10T04:05:48;9.23;;;7.88;;
39674;SDS011;27790;50.840;4.386;2023-06-10T04:08:15;8.80;;;7.30;;
39674;SDS011;27790;50.840;4.386;2023-06-10T04:10:41;10.05;;;7.30;;
39674;SDS011;27790;50.840;4.386;2023-06-10T04:13:06;8.25;;;7.30;;
39674;SDS011;27790;50.840;4.386;2023-06-10T04:15:32;12.90;;;8.23;;
39674;SDS011;27790;50.840;4.386;2023-06-10T04:17:58;9.70;;;7.53;;
39674;SDS011;27790;50.840;4.386;2023-06-10T04:20:24;14.23;;;7.97;;
39674;SDS011;27790;50.840;4.386;2023-06-10T04:22:50;9.10;;;8.20;;
39674;SDS011;27790;50.840;4.386;2023-06-10T04:25:16;9.63;;;7.90;;
39674;SDS011;27790;50.840;4.386;2023-06-10T04:27:41;11.85;;;8.55;;
39674;SDS011;27790;50.840;4.386;2023-06-10T04:30:08;8.35;;;7.55;;
39674;SDS011;27790;50.840;4.386;2023-06-10T04:32:34;9.52;;;7.95;;
39674;SDS011;27790;50.840;4.386;2023-06-10T04:34:59;12.07;;;8.00;;
39674;SDS011;27790;50.840;4.386;2023-06-10T04:37:25;11.35;;;8.20;;
39674;SDS011;27790;50.840;4.386;2023-06-10T04:39:51;8.82;;;8.00;;
39674;SDS011;27790;50.840;4.386;2023-06-10T04:42:16;8.60;;;7.75;;
39674;SDS011;27790;50.840;4.386;2023-06-10T04:44:42;9.93;;;7.82;;
39674;SDS011;27790;50.840;4.386;2023-06-10T04:47:08;12.02;;;8.90;;
39674;SDS011;27790;50.840;4.386;2023-06-10T04:49:34;10.13;;;8.10;;
39674;SDS011;27790;50.840;4.386;2023-06-10T04:52:00;10.68;;;8.45;;
39674;SDS011;27790;50.840;4.386;2023-06-10T04:54:26;9.57;;;8.57;;
39674;SDS011;27790;50.840;4.386;2023-06-10T04:56:52;9.15;;;8.35;;
39674;SDS011;27790;50.840;4.386;2023-06-10T04:59:17;9.02;;;8.13;;
39674;SDS011;27790;50.840;4.386;2023-06-10T05:01:43;13.38;;;8.82;;
39674;SDS011;27790;50.840;4.386;2023-06-10T05:04:08;9.10;;;8.07;;
39674;SDS011;27790;50.840;4.386;2023-06-10T05:06:34;14.07;;;8.88;;
39674;SDS011;27790;50.840;4.386;2023-06-10T05:09:01;9.88;;;8.80;;
39674;SDS011;27790;50.840;4.386;2023-06-10T05:11:26;10.55;;;7.95;;
39674;SDS011;27790;50.840;4.386;2023-06-10T05:13:52;10.55;;;8.80;;
39674;SDS011;27790;50.840;4.386;2023-06-10T05:16:17;9.25;;;8.35;;
39674;SDS011;27790;50.840;4.386;2023-06-10T05:18:43;9.27;;;8.48;;
39674;SDS011;27790;50.840;4.386;2023-06-10T05:21:09;8.88;;;7.88;;
39674;SDS011;27790;50.840;4.386;2023-06-10T05:23:35;9.98;;;8.98;;
39674;SDS011;27790;50.840;4.386;2023-06-10T05:26:00;13.00;;;8.82;;
39674;SDS011;27790;50.840;4.386;2023-06-10T05:28:26;10.13;;;8.13;;
39674;SDS011;27790;50.840;4.386;2023-06-10T05:30:52;10.68;;;8.18;;
39674;SDS011;27790;50.840;4.386;2023-06-10T05:33:17;9.27;;;8.43;;
39674;SDS011;27790;50.840;4.386;2023-06-10T05:35:43;12.52;;;9.30;;
39674;SDS011;27790;50.840;4.386;2023-06-10T05:38:08;10.13;;;8.38;;
39674;SDS011;27790;50.840;4.386;2023-06-10T05:40:34;9.35;;;7.70;;
39674;SDS011;27790;50.840;4.386;2023-06-10T05:42:59;9.05;;;8.25;;
39674;SDS011;27790;50.840;4.386;2023-06-10T05:45:27;9.65;;;8.75;;
39674;SDS011;27790;50.840;4.386;2023-06-10T05:47:52;9.70;;;8.80;;
39674;SDS011;27790;50.840;4.386;2023-06-10T05:50:18;11.88;;;9.05;;
39674;SDS011;27790;50.840;4.386;2023-06-10T05:52:43;14.00;;;8.02;;
39674;SDS011;27790;50.840;4.386;2023-06-10T05:55:09;8.93;;;7.82;;
39674;SDS011;27790;50.840;4.386;2023-06-10T05:57:35;13.10;;;8.77;;
39674;SDS011;27790;50.840;4.386;2023-06-10T06:00:01;10.07;;;9.05;;
39674;SDS011;27790;50.840;4.386;2023-06-10T06:02:26;8.95;;;8.13;;
39674;SDS011;27790;50.840;4.386;2023-06-10T06:04:52;9.25;;;8.48;;
39674;SDS011;27790;50.840;4.386;2023-06-10T06:07:17;9.05;;;8.27;;
39674;SDS011;27790;50.840;4.386;2023-06-10T06:09:45;9.95;;;8.88;;
39674;SDS011;27790;50.840;4.386;2023-06-10T06:12:11;13.82;;;8.50;;
39674;SDS011;27790;50.840;4.386;2023-06-10T06:14:37;11.50;;;9.10;;
39674;SDS011;27790;50.840;4.386;2023-06-10T06:17:06;12.68;;;8.25;;
39674;SDS011;27790;50.840;4.386;2023-06-10T06:19:33;10.05;;;9.10;;
39674;SDS011;27790;50.840;4.386;2023-06-10T06:21:58;10.13;;;8.38;;
39674;SDS011;27790;50.840;4.386;2023-06-10T06:24:24;10.25;;;9.10;;
39674;SDS011;27790;50.840;4.386;2023-06-10T06:26:50;10.60;;;9.57;;
39674;SDS011;27790;50.840;4.386;2023-06-10T06:29:15;9.85;;;8.88;;
39674;SDS011;27790;50.840;4.386;2023-06-10T06:31:41;11.68;;;8.68;;
39674;SDS011;27790;50.840;4.386;2023-06-10T06:34:07;9.75;;;8.95;;
39674;SDS011;27790;50.840;4.386;2023-06-10T06:36:32;9.82;;;8.77;;
39674;SDS011;27790;50.840;4.386;2023-06-10T06:38:58;11.02;;;10.02;;
39674;SDS011;27790;50.840;4.386;2023-06-10T06:41:24;10.77;;;9.38;;
39674;SDS011;27790;50.840;4.386;2023-06-10T06:43:53;10.93;;;8.88;;
39674;SDS011;27790;50.840;4.386;2023-06-10T06:46:20;9.80;;;8.73;;
39674;SDS011;27790;50.840;4.386;2023-06-10T06:48:46;9.68;;;8.20;;
39674;SDS011;27790;50.840;4.386;2023-06-10T06:51:12;9.27;;;8.45;;
39674;SDS011;27790;50.840;4.386;2023-06-10T06:53:37;12.20;;;8.48;;
39674;SDS011;27790;50.840;4.386;2023-06-10T06:56:09;11.98;;;8.35;;
39674;SDS011;27790;50.840;4.386;2023-06-10T06:58:35;9.45;;;8.52;;
39674;SDS011;27790;50.840;4.386;2023-06-10T07:01:00;11.98;;;7.72;;
39674;SDS011;27790;50.840;4.386;2023-06-10T07:03:26;11.00;;;8.68;;
39674;SDS011;27790;50.840;4.386;2023-06-10T07:05:51;10.85;;;8.20;;
39674;SDS011;27790;50.840;4.386;2023-06-10T07:08:17;11.10;;;8.93;;
39674;SDS011;27790;50.840;4.386;2023-06-10T07:10:43;10.48;;;8.40;;
39674;SDS011;27790;50.840;4.386;2023-06-10T07:13:08;12.65;;;8.35;;
39674;SDS011;27790;50.840;4.386;2023-06-10T07:15:34;10.40;;;7.82;;
39674;SDS011;27790;50.840;4.386;2023-06-10T07:18:00;9.55;;;8.60;;
39674;SDS011;27790;50.840;4.386;2023-06-10T07:20:25;9.43;;;8.25;;
39674;SDS011;27790;50.840;4.386;2023-06-10T07:22:51;9.93;;;8.93;;
39674;SDS011;27790;50.840;4.386;2023-06-10T07:25:17;9.55;;;7.97;;
39674;SDS011;27790;50.840;4.386;2023-06-10T07:27:42;8.90;;;8.00;;
39674;SDS011;27790;50.840;4.386;2023-06-10T07:30:08;9.98;;;8.32;;
39674;SDS011;27790;50.840;4.386;2023-06-10T07:32:34;10.32;;;8.00;;
39674;SDS011;27790;50.840;4.386;2023-06-10T07:34:59;8.88;;;8.07;;
39674;SDS011;27790;50.840;4.386;2023-06-10T07:37:25;10.15;;;7.20;;
39674;SDS011;27790;50.840;4.386;2023-06-10T07:39:51;8.30;;;7.70;;
39674;SDS011;27790;50.840;4.386;2023-06-10T07:42:16;7.72;;;7.18;;
39674;SDS011;27790;50.840;4.386;2023-06-10T07:44:42;8.40;;;7.72;;
39674;SDS011;27790;50.840;4.386;2023-06-10T07:47:07;9.77;;;7.65;;
39674;SDS011;27790;50.840;4.386;2023-06-10T07:49:33;11.85;;;7.85;;
39674;SDS011;27790;50.840;4.386;2023-06-10T07:51:58;10.57;;;7.72;;
39674;SDS011;27790;50.840;4.386;2023-06-10T07:54:24;8.18;;;7.10;;
39674;SDS011;27790;50.840;4.386;2023-06-10T07:56:50;10.25;;;7.10;;
39674;SDS011;27790;50.840;4.386;2023-06-10T07:59:18;6.75;;;6.30;;
39674;SDS011;27790;50.840;4.386;2023-06-10T08:01:43;8.45;;;7.47;;
39674;SDS011;27790;50.840;4.386;2023-06-10T08:04:09;7.25;;;6.60;;
39674;SDS011;27790;50.840;4.386;2023-06-10T08:06:35;13.98;;;7.85;;
39674;SDS011;27790;50.840;4.386;2023-06-10T08:09:01;7.85;;;7.15;;
39674;SDS011;27790;50.840;4.386;2023-06-10T08:11:27;9.70;;;7.25;;
39674;SDS011;27790;50.840;4.386;2023-06-10T08:13:54;8.07;;;7.30;;
39674;SDS011;27790;50.840;4.386;2023-06-10T08:16:20;7.50;;;6.95;;
39674;SDS011;27790;50.840;4.386;2023-06-10T08:18:46;7.10;;;6.60;;
39674;SDS011;27790;50.840;4.386;2023-06-10T08:21:11;10.30;;;6.80;;
39674;SDS011;27790;50.840;4.386;2023-06-10T08:23:37;7.68;;;6.95;;
39674;SDS011;27790;50.840;4.386;2023-06-10T08:26:02;7.75;;;6.95;;
39674;SDS011;27790;50.840;4.386;2023-06-10T08:28:28;7.60;;;6.85;;
39674;SDS011;27790;50.840;4.386;2023-06-10T08:30:54;8.88;;;6.93;;
39674;SDS011;27790;50.840;4.386;2023-06-10T08:33:19;8.70;;;7.35;;
39674;SDS011;27790;50.840;4.386;2023-06-10T08:35:45;7.35;;;6.82;;
39674;SDS011;27790;50.840;4.386;2023-06-10T08:38:10;7.22;;;6.57;;
39674;SDS011;27790;50.840;4.386;2023-06-10T08:40:36;7.90;;;7.20;;
39674;SDS011;27790;50.840;4.386;2023-06-10T08:43:06;8.57;;;6.40;;
39674;SDS011;27790;50.840;4.386;2023-06-10T08:45:34;7.45;;;6.72;;
39674;SDS011;27790;50.840;4.386;2023-06-10T08:48:04;9.73;;;7.05;;
39674;SDS011;27790;50.840;4.386;2023-06-10T08:50:37;7.47;;;6.82;;
39674;SDS011;27790;50.840;4.386;2023-06-10T08:53:06;6.93;;;6.07;;
39674;SDS011;27790;50.840;4.386;2023-06-10T08:55:36;9.05;;;6.60;;
39674;SDS011;27790;50.840;4.386;2023-06-10T08:58:03;7.32;;;6.63;;
39674;SDS011;27790;50.840;4.386;2023-06-10T09:00:30;9.45;;;6.45;;
39674;SDS011;27790;50.840;4.386;2023-06-10T09:02:57;12.20;;;6.40;;
39674;SDS011;27790;50.840;4.386;2023-06-10T09:05:23;8.48;;;6.93;;
39674;SDS011;27790;50.840;4.386;2023-06-10T09:07:51;8.18;;;6.25;;
39674;SDS011;27790;50.840;4.386;2023-06-10T09:10:17;8.73;;;6.30;;
39674;SDS011;27790;50.840;4.386;2023-06-10T09:12:43;6.32;;;5.93;;
39674;SDS011;27790;50.840;4.386;2023-06-10T09:15:09;6.65;;;6.15;;
39674;SDS011;27790;50.840;4.386;2023-06-10T09:17:37;6.05;;;5.65;;
39674;SDS011;27790;50.840;4.386;2023-06-10T09:20:05;7.07;;;6.47;;
39674;SDS011;27790;50.840;4.386;2023-06-10T09:22:32;10.48;;;6.40;;
39674;SDS011;27790;50.840;4.386;2023-06-10T09:35:17;10.80;;;5.90;;
39674;SDS011;27790;50.840;4.386;2023-06-10T09:37:43;6.45;;;5.70;;
39674;SDS011;27790;50.840;4.386;2023-06-10T09:40:09;6.72;;;6.00;;
39674;SDS011;27790;50.840;4.386;2023-06-10T09:42:37;7.22;;;5.68;;
39674;SDS011;27790;50.840;4.386;2023-06-10T09:45:04;6.13;;;5.47;;
39674;SDS011;27790;50.840;4.386;2023-06-10T09:47:32;6.32;;;5.75;;
39674;SDS011;27790;50.840;4.386;2023-06-10T09:49:57;6.82;;;6.15;;
39674;SDS011;27790;50.840;4.386;2023-06-10T09:52:24;13.10;;;6.25;;
39674;SDS011;27790;50.840;4.386;2023-06-10T09:54:51;7.50;;;6.80;;
39674;SDS011;27790;50.840;4.386;2023-06-10T09:57:17;8.18;;;6.45;;
39674;SDS011;27790;50.840;4.386;2023-06-10T09:59:45;7.82;;;6.55;;
39674;SDS011;27790;50.840;4.386;2023-06-10T10:02:14;7.38;;;5.93;;
39674;SDS011;27790;50.840;4.386;2023-06-10T10:04:41;8.48;;;6.43;;
39674;SDS011;27790;50.840;4.386;2023-06-10T10:07:10;6.95;;;6.30;;
39674;SDS011;27790;50.840;4.386;2023-06-10T10:09:37;7.03;;;6.43;;
39674;SDS011;27790;50.840;4.386;2023-06-10T10:12:04;9.63;;;6.63;;
39674;SDS011;27790;50.840;4.386;2023-06-10T10:14:37;7.53;;;5.82;;
39674;SDS011;27790;50.840;4.386;2023-06-10T10:17:09;8.38;;;6.18;;
39674;SDS011;27790;50.840;4.386;2023-06-10T10:22:24;6.45;;;5.93;;
39674;SDS011;27790;50.840;4.386;2023-06-10T10:24:59;6.63;;;5.97;;
39674;SDS011;27790;50.840;4.386;2023-06-10T10:27:28;6.82;;;6.03;;
39674;SDS011;27790;50.840;4.386;2023-06-10T10:30:00;20.92;;;7.03;;
39674;SDS011;27790;50.840;4.386;2023-06-10T10:32:32;8.80;;;6.57;;
39674;SDS011;27790;50.840;4.386;2023-06-10T10:35:03;6.38;;;5.88;;
39674;SDS011;27790;50.840;4.386;2023-06-10T10:37:42;8.73;;;5.82;;
39674;SDS011;27790;50.840;4.386;2023-06-10T10:40:08;7.05;;;6.32;;
39674;SDS011;27790;50.840;4.386;2023-06-10T10:42:35;6.85;;;6.30;;
39674;SDS011;27790;50.840;4.386;2023-06-10T10:45:01;6.82;;;5.70;;
39674;SDS011;27790;50.840;4.386;2023-06-10T10:47:28;7.78;;;5.78;;
39674;SDS011;27790;50.840;4.386;2023-06-10T10:49:55;10.18;;;5.72;;
39674;SDS011;27790;50.840;4.386;2023-06-10T10:52:24;6.53;;;5.90;;
39674;SDS011;27790;50.840;4.386;2023-06-10T10:54:52;7.07;;;6.32;;
39674;SDS011;27790;50.840;4.386;2023-06-10T10:57:19;6.50;;;5.68;;
39674;SDS011;27790;50.840;4.386;2023-06-10T11:05:03;6.63;;;5.75;;
39674;SDS011;27790;50.840;4.386;2023-06-10T11:07:30;6.70;;;6.10;;
39674;SDS011;27790;50.840;4.386;2023-06-10T11:09:58;6.65;;;5.88;;
39674;SDS011;27790;50.840;4.386;2023-06-10T11:12:24;6.43;;;5.93;;
39674;SDS011;27790;50.840;4.386;2023-06-10T11:14:54;6.65;;;5.60;;
39674;SDS011;27790;50.840;4.386;2023-06-10T11:17:24;17.67;;;6.35;;
39674;SDS011;27790;50.840;4.386;2023-06-10T11:19:49;6.15;;;5.57;;
39674;SDS011;27790;50.840;4.386;2023-06-10T11:22:18;7.45;;;5.88;;
39674;SDS011;27790;50.840;4.386;2023-06-10T11:24:47;6.78;;;5.88;;
39674;SDS011;27790;50.840;4.386;2023-06-10T11:27:21;6.28;;;5.78;;
39674;SDS011;27790;50.840;4.386;2023-06-10T11:32:28;8.95;;;5.75;;
39674;SDS011;27790;50.840;4.386;2023-06-10T11:34:56;6.80;;;5.85;;
39674;SDS011;27790;50.840;4.386;2023-06-10T11:37:22;8.00;;;5.75;;
39674;SDS011;27790;50.840;4.386;2023-06-10T11:39:52;6.38;;;5.53;;
39674;SDS011;27790;50.840;4.386;2023-06-10T11:42:18;7.50;;;5.90;;
39674;SDS011;27790;50.840;4.386;2023-06-10T11:44:51;9.80;;;5.65;;
39674;SDS011;27790;50.840;4.386;2023-06-10T11:47:18;7.10;;;6.40;;
39674;SDS011;27790;50.840;4.386;2023-06-10T11:49:45;6.68;;;6.03;;
39674;SDS011;27790;50.840;4.386;2023-06-10T11:52:25;6.85;;;5.55;;
39674;SDS011;27790;50.840;4.386;2023-06-10T11:54:53;9.68;;;5.93;;
39674;SDS011;27790;50.840;4.386;2023-06-10T11:57:20;6.22;;;5.72;;
39674;SDS011;27790;50.840;4.386;2023-06-10T11:59:45;9.07;;;5.95;;
39674;SDS011;27790;50.840;4.386;2023-06-10T12:02:14;10.43;;;5.80;;
39674;SDS011;27790;50.840;4.386;2023-06-10T12:04:41;6.22;;;5.63;;
39674;SDS011;27790;50.840;4.386;2023-06-10T12:07:06;11.70;;;6.13;;
39674;SDS011;27790;50.840;4.386;2023-06-10T12:09:32;6.78;;;5.82;;
39674;SDS011;27790;50.840;4.386;2023-06-10T12:12:04;7.07;;;6.53;;
39674;SDS011;27790;50.840;4.386;2023-06-10T12:20:03;8.43;;;5.65;;
39674;SDS011;27790;50.840;4.386;2023-06-10T12:22:37;9.02;;;5.78;;
39674;SDS011;27790;50.840;4.386;2023-06-10T12:25:04;15.75;;;6.85;;
39674;SDS011;27790;50.840;4.386;2023-06-10T12:27:32;7.10;;;6.40;;
39674;SDS011;27790;50.840;4.386;2023-06-10T12:29:59;6.65;;;6.10;;
39674;SDS011;27790;50.840;4.386;2023-06-10T12:35:05;9.40;;;6.10;;
39674;SDS011;27790;50.840;4.386;2023-06-10T12:37:31;11.15;;;6.50;;
39674;SDS011;27790;50.840;4.386;2023-06-10T12:40:03;7.15;;;6.05;;
39674;SDS011;27790;50.840;4.386;2023-06-10T12:42:36;7.05;;;5.82;;
39674;SDS011;27790;50.840;4.386;2023-06-10T12:45:03;6.47;;;5.88;;
39674;SDS011;27790;50.840;4.386;2023-06-10T12:47:31;6.72;;;6.15;;
39674;SDS011;27790;50.840;4.386;2023-06-10T12:50:01;7.03;;;6.45;;
39674;SDS011;27790;50.840;4.386;2023-06-10T12:52:28;8.20;;;6.65;;
39674;SDS011;27790;50.840;4.386;2023-06-10T12:54:54;15.27;;;6.28;;
39674;SDS011;27790;50.840;4.386;2023-06-10T12:57:20;7.20;;;6.20;;
39674;SDS011;27790;50.840;4.386;2023-06-10T12:59:46;9.15;;;6.70;;
39674;SDS011;27790;50.840;4.386;2023-06-10T13:02:17;7.68;;;6.38;;
39674;SDS011;27790;50.840;4.386;2023-06-10T13:04:48;7.40;;;6.80;;
39674;SDS011;27790;50.840;4.386;2023-06-10T13:07:14;17.77;;;6.88;;
39674;SDS011;27790;50.840;4.386;2023-06-10T13:09:41;6.85;;;6.35;;
39674;SDS011;27790;50.840;4.386;2023-06-10T13:12:07;9.05;;;6.70;;
39674;SDS011;27790;50.840;4.386;2023-06-10T13:14:33;8.13;;;6.18;;
39674;SDS011;27790;50.840;4.386;2023-06-10T13:16:59;8.90;;;7.07;;
39674;SDS011;27790;50.840;4.386;2023-06-10T13:19:24;8.02;;;6.65;;
39674;SDS011;27790;50.840;4.386;2023-06-10T13:21:51;8.75;;;6.95;;
39674;SDS011;27790;50.840;4.386;2023-06-10T13:24:17;7.75;;;5.85;;
39674;SDS011;27790;50.840;4.386;2023-06-10T13:26:42;10.27;;;6.38;;
39674;SDS011;27790;50.840;4.386;2023-06-10T13:29:08;9.82;;;6.13;;
39674;SDS011;27790;50.840;4.386;2023-06-10T13:31:39;7.60;;;6.43;;
39674;SDS011;27790;50.840;4.386;2023-06-10T13:34:05;7.25;;;6.55;;
39674;SDS011;27790;50.840;4.386;2023-06-10T13:36:31;7.35;;;6.28;;
39674;SDS011;27790;50.840;4.386;2023-06-10T13:38:56;7.30;;;6.60;;
39674;SDS011;27790;50.840;4.386;2023-06-10T13:41:22;6.97;;;6.43;;
39674;SDS011;27790;50.840;4.386;2023-06-10T13:43:48;7.75;;;6.97;;
39674;SDS011;27790;50.840;4.386;2023-06-10T13:46:13;12.32;;;5.65;;
39674;SDS011;27790;50.840;4.386;2023-06-10T13:48:39;10.65;;;6.53;;
39674;SDS011;27790;50.840;4.386;2023-06-10T13:51:05;8.13;;;6.18;;
39674;SDS011;27790;50.840;4.386;2023-06-10T13:53:31;7.53;;;6.80;;
39674;SDS011;27790;50.840;4.386;2023-06-10T13:55:57;7.05;;;6.45;;
39674;SDS011;27790;50.840;4.386;2023-06-10T13:58:22;7.80;;;6.53;;
39674;SDS011;27790;50.840;4.386;2023-06-10T14:00:48;7.20;;;6.60;;
39674;SDS011;27790;50.840;4.386;2023-06-10T14:03:14;7.18;;;6.32;;
39674;SDS011;27790;50.840;4.386;2023-06-10T14:05:40;8.38;;;7.47;;
39674;SDS011;27790;50.840;4.386;2023-06-10T14:08:05;7.22;;;6.38;;
39674;SDS011;27790;50.840;4.386;2023-06-10T14:10:31;20.90;;;6.68;;
39674;SDS011;27790;50.840;4.386;2023-06-10T14:12:56;9.73;;;6.43;;
39674;SDS011;27790;50.840;4.386;2023-06-10T14:15:22;7.15;;;5.85;;
39674;SDS011;27790;50.840;4.386;2023-06-10T14:17:48;7.55;;;6.60;;
39674;SDS011;27790;50.840;4.386;2023-06-10T14:20:13;8.82;;;6.55;;
39674;SDS011;27790;50.840;4.386;2023-06-10T14:22:39;9.30;;;6.60;;
39674;SDS011;27790;50.840;4.386;2023-06-10T14:25:05;8.07;;;7.25;;
39674;SDS011;27790;50.840;4.386;2023-06-10T14:27:31;7.00;;;6.40;;
39674;SDS011;27790;50.840;4.386;2023-06-10T14:29:56;6.80;;;6.20;;
39674;SDS011;27790;50.840;4.386;2023-06-10T14:32:22;9.77;;;6.35;;
39674;SDS011;27790;50.840;4.386;2023-06-10T14:34:48;19.75;;;7.97;;
39674;SDS011;27790;50.840;4.386;2023-06-10T14:37:13;11.73;;;6.55;;
39674;SDS011;27790;50.840;4.386;2023-06-10T14:39:39;8.32;;;6.88;;
39674;SDS011;27790;50.840;4.386;2023-06-10T14:42:05;9.60;;;6.45;;
39674;SDS011;27790;50.840;4.386;2023-06-10T14:44:31;7.78;;;6.90;;
39674;SDS011;27790;50.840;4.386;2023-06-10T14:46:56;12.55;;;6.95;;
39674;SDS011;27790;50.840;4.386;2023-06-10T14:49:22;7.03;;;6.43;;
39674;SDS011;27790;50.840;4.386;2023-06-10T14:51:48;8.55;;;6.45;;
39674;SDS011;27790;50.840;4.386;2023-06-10T14:54:15;12.82;;;6.13;;
39674;SDS011;27790;50.840;4.386;2023-06-10T14:56:41;11.85;;;6.95;;
39674;SDS011;27790;50.840;4.386;2023-06-10T14:59:06;7.35;;;6.43;;
39674;SDS011;27790;50.840;4.386;2023-06-10T15:01:32;10.98;;;6.55;;
39674;SDS011;27790;50.840;4.386;2023-06-10T15:03:57;6.85;;;5.63;;
39674;SDS011;27790;50.840;4.386;2023-06-10T15:06:23;6.72;;;6.13;;
39674;SDS011;27790;50.840;4.386;2023-06-10T15:08:48;8.10;;;6.63;;
39674;SDS011;27790;50.840;4.386;2023-06-10T15:11:14;8.35;;;6.25;;